createdAt,value
2022-08-09T00:01:05.497Z,2.00
2022-08-09T00:04:06.003Z,2.00
2022-08-09T00:06:23.668Z,2.00
2022-08-09T00:08:51.741Z,1.75
2022-08-09T00:11:25.190Z,1.95
2022-08-09T00:13:53.969Z,2.08
2022-08-09T00:16:26.173Z,1.92
2022-08-09T00:19:03.437Z,1.98
2022-08-09T00:21:36.405Z,1.92
2022-08-09T00:24:03.399Z,1.90
2022-08-09T00:26:33.055Z,1.77
2022-08-09T00:29:01.311Z,1.85
2022-08-09T00:31:57.523Z,2.10
2022-08-09T00:34:14.214Z,2.13
2022-08-09T00:36:41.952Z,1.95
2022-08-09T00:39:10.978Z,2.00
2022-08-09T00:44:15.387Z,2.03
2022-08-09T00:44:41.576Z,2.00
2022-08-09T00:47:08.549Z,1.90
2022-08-09T00:49:41.801Z,1.83
2022-08-09T00:52:17.239Z,1.88
2022-08-09T00:54:44.930Z,2.00
2022-08-09T00:57:11.657Z,2.03
2022-08-09T00:59:47.203Z,2.05
2022-08-09T01:02:21.261Z,2.00
2022-08-09T01:04:53.910Z,1.90
2022-08-09T01:07:37.562Z,2.00
2022-08-09T01:10:23.393Z,2.00
2022-08-09T01:13:11.683Z,2.10
2022-08-09T01:15:40.869Z,1.92
2022-08-09T01:18:29.661Z,2.10
2022-08-09T01:21:17.248Z,1.90
2022-08-09T01:24:02.651Z,2.08
2022-08-09T01:26:36.241Z,2.30
2022-08-09T01:29:03.772Z,2.60
2022-08-09T01:32:43.965Z,2.22
2022-08-09T01:34:18.110Z,2.10
2022-08-09T01:36:45.074Z,2.10
2022-08-09T01:39:13.676Z,2.03
2022-08-09T01:41:55.676Z,1.90
2022-08-09T01:44:27.917Z,2.10
2022-08-09T01:46:54.467Z,2.05
2022-08-09T01:49:24.305Z,2.25
2022-08-09T01:51:53.539Z,2.15
2022-08-09T01:54:28.013Z,2.40
2022-08-09T01:57:00.209Z,2.42
2022-08-09T01:59:32.465Z,2.38
2022-08-09T02:02:01.125Z,2.10
2022-08-09T02:04:29.848Z,2.63
2022-08-09T02:07:17.922Z,2.20
2022-08-09T02:10:04.433Z,1.80
2022-08-09T02:12:32.856Z,2.25
2022-08-09T02:15:01.572Z,2.70
2022-08-09T02:18:01.630Z,2.95
2022-08-09T02:20:26.364Z,2.75
2022-08-09T02:23:03.438Z,2.65
2022-08-09T02:25:41.823Z,3.00
2022-08-09T02:28:12.645Z,3.00
2022-08-09T02:30:53.784Z,3.08
2022-08-09T02:33:23.170Z,3.28
2022-08-09T02:36:07.156Z,2.47
2022-08-09T02:38:47.758Z,2.80
2022-08-09T02:41:17.749Z,2.65
2022-08-09T02:43:54.588Z,2.30
2022-08-09T02:46:24.095Z,2.70
2022-08-09T02:48:51.354Z,3.00
2022-08-09T02:51:18.658Z,3.38
2022-08-09T02:53:53.033Z,2.95
2022-08-09T02:56:28.144Z,2.60
2022-08-09T02:58:55.106Z,2.38
2022-08-09T03:01:29.376Z,3.35
2022-08-09T03:04:17.914Z,3.47
2022-08-09T03:06:48.929Z,6.53
2022-08-09T03:09:16.157Z,6.72
2022-08-09T03:12:05.519Z,5.13
2022-08-09T03:14:31.743Z,4.65
2022-08-09T03:16:59.701Z,5.93
2022-08-09T03:19:59.520Z,6.68
2022-08-09T03:22:25.362Z,6.53
2022-08-09T03:25:25.882Z,4.63
2022-08-09T03:27:45.873Z,3.78
2022-08-09T03:30:13.102Z,3.30
2022-08-09T03:32:41.633Z,2.55
2022-08-09T03:35:24.303Z,2.72
2022-08-09T03:37:56.589Z,2.50
2022-08-09T03:40:25.103Z,3.00
2022-08-09T03:42:51.610Z,2.92
2022-08-09T03:46:04.649Z,2.80
2022-08-09T03:48:04.499Z,2.83
2022-08-09T03:50:33.037Z,3.85
2022-08-09T03:53:01.504Z,4.28
2022-08-09T03:55:30.133Z,4.88
2022-08-09T03:58:06.691Z,3.65
2022-08-09T04:00:45.013Z,3.50
2022-08-09T04:03:11.780Z,3.10
2022-08-09T04:05:46.421Z,3.00
2022-08-09T04:08:12.786Z,3.03
2022-08-09T04:10:39.641Z,2.38
2022-08-09T04:13:11.451Z,2.67
2022-08-09T04:16:17.703Z,2.63
2022-08-09T04:18:25.277Z,2.83
2022-08-09T04:20:51.724Z,2.50
2022-08-09T04:23:24.628Z,2.67
2022-08-09T04:25:53.017Z,2.45
2022-08-09T04:28:33.429Z,2.67
2022-08-09T04:31:08.588Z,2.50
2022-08-09T04:33:51.617Z,2.78
2022-08-09T04:36:19.710Z,2.47
2022-08-09T04:38:46.348Z,2.50
2022-08-09T04:41:13.973Z,2.80
2022-08-09T04:43:53.637Z,2.67
2022-08-09T04:46:57.785Z,3.00
2022-08-09T04:49:14.523Z,2.83
2022-08-09T04:51:41.423Z,2.80
2022-08-09T04:54:07.766Z,2.95
2022-08-09T04:56:34.333Z,2.55
2022-08-09T04:59:04.845Z,2.85
2022-08-09T05:01:33.800Z,2.70
2022-08-09T05:04:00.209Z,2.78
2022-08-09T05:06:31.588Z,2.50
2022-08-09T05:09:02.194Z,2.50
2022-08-09T05:11:30.578Z,2.97
2022-08-09T05:13:59.001Z,2.80
2022-08-09T05:16:28.519Z,2.50
2022-08-09T05:18:59.928Z,2.80
2022-08-09T05:21:29.801Z,2.47
2022-08-09T05:24:01.600Z,2.70
2022-08-09T05:26:45.538Z,2.80
2022-08-09T05:29:17.267Z,2.70
2022-08-09T05:31:56.775Z,2.85
2022-08-09T05:34:30.868Z,3.10
2022-08-09T05:37:01.779Z,2.80
2022-08-09T05:39:36.207Z,2.75
2022-08-09T05:42:09.967Z,2.72
2022-08-09T05:44:44.433Z,2.90
2022-08-09T05:47:11.008Z,2.63
2022-08-09T05:50:24.369Z,2.22
2022-08-09T05:52:24.762Z,1.95
2022-08-09T05:54:51.405Z,2.40
2022-08-09T05:57:19.123Z,2.50
2022-08-09T05:59:46.264Z,2.20
2022-08-09T06:02:16.784Z,2.20
2022-08-09T06:04:46.035Z,2.45
2022-08-09T06:07:21.368Z,2.28
2022-08-09T06:10:01.558Z,2.10
2022-08-09T06:12:29.067Z,2.25
2022-08-09T06:15:00.674Z,2.25
2022-08-09T06:17:27.869Z,2.33
2022-08-09T06:20:06.682Z,2.10
2022-08-09T06:22:33.259Z,1.88
2022-08-09T06:24:59.762Z,2.22
2022-08-09T06:27:26.083Z,2.25
2022-08-09T06:30:10.005Z,2.10
2022-08-09T06:32:59.691Z,1.90
2022-08-09T06:35:22.851Z,1.90
2022-08-09T06:38:09.190Z,1.90
2022-08-09T06:40:37.515Z,2.00
2022-08-09T06:43:04.346Z,1.98
2022-08-09T06:46:05.973Z,2.28
2022-08-09T06:48:30.592Z,1.98
2022-08-09T06:50:57.776Z,2.00
2022-08-09T06:53:24.737Z,1.85
2022-08-09T06:55:51.061Z,2.00
2022-08-09T06:58:40.817Z,2.20
2022-08-09T07:01:04.105Z,1.98
2022-08-09T07:03:30.848Z,2.67
2022-08-09T07:06:03.578Z,2.33
2022-08-09T07:10:58.702Z,2.10
2022-08-09T07:13:28.160Z,1.95
2022-08-09T07:16:42.562Z,2.10
2022-08-09T07:18:42.904Z,2.00
2022-08-09T07:21:10.469Z,2.10
2022-08-09T07:23:56.634Z,1.80
2022-08-09T07:26:24.149Z,1.90
2022-08-09T07:29:08.839Z,1.90
2022-08-09T07:31:44.993Z,2.10
2022-08-09T07:34:21.090Z,1.80
2022-08-09T07:36:48.517Z,1.95
2022-08-09T07:39:20.162Z,2.00
2022-08-09T07:42:02.329Z,2.00
2022-08-09T07:44:52.347Z,2.20
2022-08-09T07:47:16.293Z,2.05
2022-08-09T07:50:04.643Z,2.10
2022-08-09T07:52:29.704Z,2.00
2022-08-09T07:54:56.677Z,1.90
2022-08-09T07:57:24.000Z,1.90
2022-08-09T08:00:03.429Z,2.20
2022-08-09T08:02:42.670Z,1.90
2022-08-09T08:05:17.657Z,1.90
2022-08-09T08:08:43.500Z,2.00
2022-08-09T08:10:34.285Z,2.03
2022-08-09T08:13:01.026Z,2.10
2022-08-09T08:15:30.155Z,2.28
2022-08-09T08:18:01.984Z,2.10
2022-08-09T08:20:33.064Z,2.10
2022-08-09T08:23:01.379Z,2.10
2022-08-09T08:25:44.097Z,1.90
2022-08-09T08:28:11.236Z,1.83
2022-08-09T08:30:41.725Z,2.10
2022-08-09T08:33:12.071Z,2.05
2022-08-09T08:35:58.537Z,2.08
2022-08-09T08:38:28.809Z,2.00
2022-08-09T08:40:55.827Z,2.03
2022-08-09T08:43:23.588Z,2.10
2022-08-09T08:45:53.190Z,2.30
2022-08-09T08:48:22.167Z,2.10
2022-08-09T08:50:49.329Z,1.67
2022-08-09T08:53:22.005Z,1.80
2022-08-09T08:55:48.883Z,1.90
2022-08-09T08:58:19.626Z,1.90
2022-08-09T09:00:54.458Z,1.90
2022-08-09T09:03:33.083Z,1.92
2022-08-09T09:06:05.605Z,2.08
2022-08-09T09:08:40.691Z,2.10
2022-08-09T09:11:07.896Z,2.05
2022-08-09T09:13:54.935Z,1.98
2022-08-09T09:16:29.796Z,2.22
2022-08-09T09:19:21.482Z,2.05
2022-08-09T09:22:04.297Z,1.90
2022-08-09T09:24:43.789Z,1.75
2022-08-09T09:27:47.223Z,1.95
2022-08-09T09:30:15.828Z,1.90
2022-08-09T09:33:16.439Z,1.80
2022-08-09T09:36:00.757Z,1.77
2022-08-09T09:38:56.998Z,2.13
2022-08-09T09:41:24.012Z,2.00
2022-08-09T09:44:10.888Z,1.95
2022-08-09T09:46:51.570Z,2.00
2022-08-09T09:49:31.906Z,1.95
2022-08-09T09:52:16.368Z,1.70
2022-08-09T09:55:02.549Z,2.10
2022-08-09T09:58:03.080Z,2.00
2022-08-09T10:00:31.750Z,1.70
2022-08-09T10:02:59.919Z,1.83
2022-08-09T10:05:26.865Z,2.10
2022-08-09T10:08:27.364Z,2.05
2022-08-09T10:10:50.552Z,2.10
2022-08-09T10:13:23.254Z,1.75
2022-08-09T10:16:54.661Z,2.00
2022-08-09T10:18:54.445Z,1.70
2022-08-09T10:21:22.415Z,1.98
2022-08-09T10:23:50.311Z,1.90
2022-08-09T10:26:19.391Z,1.98
2022-08-09T10:28:49.021Z,1.95
2022-08-09T10:35:16.249Z,2.05
2022-08-09T10:37:46.504Z,1.60
2022-08-09T10:40:41.144Z,1.80
2022-08-09T10:43:13.063Z,1.73
2022-08-09T10:45:58.760Z,1.90
2022-08-09T10:48:30.469Z,1.60
2022-08-09T10:51:06.452Z,1.80
2022-08-09T10:53:38.028Z,1.80
2022-08-09T10:56:22.637Z,1.90
2022-08-09T10:58:53.997Z,1.65
2022-08-09T11:03:14.172Z,1.80
2022-08-09T11:04:30.131Z,1.90
2022-08-09T11:06:59.624Z,1.60
2022-08-09T11:09:53.460Z,1.98
2022-08-09T11:12:29.384Z,1.55
2022-08-09T11:15:19.019Z,1.65
2022-08-09T11:17:46.475Z,1.40
2022-08-09T11:20:37.449Z,1.70
2022-08-09T11:23:07.326Z,1.67
2022-08-09T11:25:47.649Z,1.60
2022-08-09T11:28:38.675Z,1.42
2022-08-09T11:31:39.823Z,1.73
2022-08-09T11:34:16.658Z,1.80
2022-08-09T11:36:44.309Z,1.73
2022-08-09T11:39:11.522Z,1.38
2022-08-09T11:41:40.692Z,1.70
2022-08-09T11:44:07.626Z,1.70
2022-08-09T11:46:53.808Z,1.55
2022-08-09T11:49:42.551Z,1.80
2022-08-09T11:53:02.233Z,1.67
2022-08-09T11:55:34.993Z,1.70
2022-08-09T11:58:32.292Z,1.73
2022-08-09T12:01:08.738Z,1.80
2022-08-09T12:03:56.607Z,1.52
2022-08-09T12:06:32.409Z,1.58
2022-08-09T12:09:03.557Z,1.65
2022-08-09T12:11:44.622Z,1.60
2022-08-09T12:14:37.070Z,1.70
2022-08-09T12:17:28.269Z,1.60
2022-08-09T12:19:53.497Z,1.65
2022-08-09T12:22:26.474Z,1.80
2022-08-09T12:25:09.781Z,1.60
2022-08-09T12:29:10.019Z,1.75
2022-08-09T12:30:36.749Z,1.42
2022-08-09T12:33:06.083Z,1.45
2022-08-09T12:35:40.180Z,1.55
2022-08-09T12:40:43.061Z,1.58
2022-08-09T12:43:09.489Z,1.52
2022-08-09T12:45:38.234Z,1.40
2022-08-09T12:48:05.634Z,1.67
2022-08-09T12:50:35.747Z,1.30
2022-08-09T12:53:18.189Z,1.60
2022-08-09T12:56:14.893Z,1.70
2022-08-09T12:58:32.866Z,1.50
2022-08-09T13:01:01.394Z,1.55
2022-08-09T13:03:57.125Z,1.60
2022-08-09T13:06:42.033Z,1.50
2022-08-09T13:09:08.495Z,1.48
2022-08-09T13:11:39.561Z,1.60
2022-08-09T13:14:42.090Z,1.63
2022-08-09T13:17:15.915Z,1.60
2022-08-09T13:20:09.679Z,1.65
2022-08-09T13:22:35.478Z,1.50
2022-08-09T13:25:05.107Z,1.30
2022-08-09T13:27:40.221Z,1.40
2022-08-09T13:30:50.763Z,1.40
2022-08-09T13:33:06.585Z,1.50
2022-08-09T13:36:39.708Z,1.50
2022-08-09T13:38:55.886Z,1.80
2022-08-09T13:41:59.352Z,1.40
2022-08-09T13:44:16.378Z,1.40
2022-08-09T13:47:26.990Z,1.60
2022-08-09T13:49:37.790Z,1.58
2022-08-09T13:52:08.992Z,1.40
2022-08-09T13:54:36.160Z,1.45
2022-08-09T13:57:08.345Z,1.55
2022-08-09T13:59:42.078Z,1.30
2022-08-09T14:02:08.882Z,1.60
2022-08-09T14:04:36.433Z,2.00
2022-08-09T14:07:03.459Z,1.50
2022-08-09T14:09:30.273Z,1.38
2022-08-09T14:12:01.782Z,1.40
2022-08-09T14:14:35.027Z,1.70
2022-08-09T14:17:01.767Z,1.60
2022-08-09T14:19:30.290Z,1.60
2022-08-09T14:21:59.848Z,1.50
2022-08-09T14:24:32.687Z,1.70
2022-08-09T14:27:01.044Z,1.73
2022-08-09T14:30:36.005Z,1.73
2022-08-09T14:32:16.513Z,1.55
2022-08-09T14:34:46.659Z,1.58
2022-08-09T14:37:22.172Z,1.73
2022-08-09T14:39:55.116Z,1.88
2022-08-09T14:42:39.232Z,1.77
2022-08-09T14:46:54.808Z,1.48
2022-08-09T14:47:58.143Z,1.65
2022-08-09T14:50:25.782Z,1.90
2022-08-09T14:52:53.361Z,1.80
2022-08-09T14:55:21.169Z,1.85
2022-08-09T14:57:47.913Z,1.67
2022-08-09T15:00:17.596Z,1.52
2022-08-09T15:02:47.614Z,1.80
2022-08-09T15:05:18.429Z,1.70
2022-08-09T15:07:45.643Z,1.48
2022-08-09T15:10:21.668Z,1.70
2022-08-09T15:12:51.554Z,1.75
2022-08-09T15:15:17.944Z,1.60
2022-08-09T15:17:47.237Z,1.70
2022-08-09T15:21:55.866Z,1.80
2022-08-09T15:24:01.646Z,1.60
2022-08-09T15:25:55.664Z,1.45
2022-08-09T15:28:27.513Z,1.80
2022-08-09T15:31:03.131Z,1.60
2022-08-09T15:34:15.240Z,2.03
2022-08-09T15:36:28.492Z,1.63
2022-08-09T15:38:56.461Z,1.80
2022-08-09T15:41:23.180Z,1.58
2022-08-09T15:43:58.196Z,1.67
2022-08-09T15:46:32.096Z,1.70
2022-08-09T15:49:23.101Z,1.60
2022-08-09T15:52:02.759Z,1.60
2022-08-09T15:54:46.219Z,1.88
2022-08-09T15:57:18.964Z,1.80
2022-08-09T16:00:00.296Z,1.95
2022-08-09T16:02:27.378Z,2.00
2022-08-09T16:04:53.985Z,1.70
2022-08-09T16:07:20.375Z,1.90
2022-08-09T16:09:57.579Z,2.00
2022-08-09T16:12:31.527Z,2.05
2022-08-09T16:14:57.972Z,2.00
2022-08-09T16:17:24.385Z,2.10
2022-08-09T16:20:03.834Z,2.13
2022-08-09T16:22:32.249Z,2.30
2022-08-09T16:25:01.424Z,2.28
2022-08-09T16:27:29.951Z,1.80
2022-08-09T16:30:01.097Z,2.00
2022-08-09T16:32:53.509Z,2.00
2022-08-09T16:35:57.506Z,2.20
2022-08-09T16:38:09.377Z,1.77
2022-08-09T16:41:04.210Z,2.00
2022-08-09T16:43:32.776Z,1.90
2022-08-09T16:46:12.402Z,1.92
2022-08-09T16:48:55.723Z,1.80
2022-08-09T16:51:28.422Z,1.80
2022-08-09T16:54:26.184Z,1.90
2022-08-09T16:56:48.978Z,1.83
2022-08-09T16:59:57.404Z,2.15
2022-08-09T17:02:25.706Z,1.80
2022-08-09T17:04:52.730Z,1.80
2022-08-09T17:08:45.870Z,1.73
2022-08-09T17:10:27.714Z,1.70
2022-08-09T17:12:55.174Z,2.30
2022-08-09T17:15:31.188Z,1.67
2022-08-09T17:18:15.144Z,1.80
2022-08-09T17:20:48.021Z,2.50
2022-08-09T17:23:19.378Z,2.20
2022-08-09T17:25:52.775Z,2.00
2022-08-09T17:30:47.892Z,2.10
2022-08-09T17:33:22.268Z,2.28
2022-08-09T17:35:51.307Z,1.80
2022-08-09T17:38:30.475Z,1.90
2022-08-09T17:40:59.954Z,1.90
2022-08-09T17:43:34.122Z,2.17
2022-08-09T17:46:10.211Z,3.13
2022-08-09T17:48:39.691Z,2.65
2022-08-09T17:51:17.881Z,2.83
2022-08-09T17:53:53.565Z,2.58
2022-08-09T17:56:27.458Z,2.00
2022-08-09T17:58:59.795Z,2.20
2022-08-09T18:02:03.737Z,4.28
2022-08-09T18:04:14.865Z,4.10
2022-08-09T18:06:49.705Z,2.97
2022-08-09T18:09:35.723Z,2.35
2022-08-09T18:12:15.072Z,2.13
2022-08-09T18:14:49.870Z,2.20
2022-08-09T18:17:27.481Z,2.10
2022-08-09T18:20:54.197Z,2.20
2022-08-09T18:22:53.766Z,2.38
2022-08-09T18:25:20.624Z,2.63
2022-08-09T18:28:21.424Z,1.98
2022-08-09T18:30:59.487Z,2.03
2022-08-09T18:33:28.385Z,1.73
2022-08-09T18:35:59.707Z,2.53
2022-08-09T18:38:26.706Z,1.98
2022-08-09T18:40:55.206Z,2.60
2022-08-09T18:43:21.974Z,2.00
2022-08-09T18:46:49.612Z,1.92
2022-08-09T18:48:36.109Z,2.00
2022-08-09T18:51:02.496Z,2.20
2022-08-09T18:53:36.698Z,1.98
2022-08-09T18:56:16.089Z,2.30
2022-08-09T18:58:42.472Z,2.03
2022-08-09T19:01:11.516Z,2.00
2022-08-09T19:04:01.796Z,2.10
2022-08-09T19:06:25.278Z,2.00
2022-08-09T19:08:55.430Z,2.15
2022-08-09T19:11:37.398Z,2.20
2022-08-09T19:14:06.114Z,2.53
2022-08-09T19:16:36.083Z,2.47
2022-08-09T19:19:25.256Z,2.20
2022-08-09T19:22:04.765Z,2.20
2022-08-09T19:25:11.386Z,2.15
2022-08-09T19:27:25.955Z,2.38
2022-08-09T19:30:24.927Z,2.28
2022-08-09T19:32:41.749Z,2.33
2022-08-09T19:35:08.237Z,2.20
2022-08-09T19:37:54.438Z,2.10
2022-08-09T19:40:21.162Z,2.10
2022-08-09T19:42:49.524Z,1.98
2022-08-09T19:45:16.461Z,2.42
2022-08-09T19:47:44.294Z,2.08
2022-08-09T19:50:48.967Z,1.92
2022-08-09T19:52:58.829Z,2.20
2022-08-09T19:55:25.615Z,2.30
2022-08-09T19:57:57.277Z,2.22
2022-08-09T20:00:23.874Z,2.25
2022-08-09T20:04:09.846Z,2.10
2022-08-09T20:05:46.042Z,2.33
2022-08-09T20:08:16.142Z,2.42
2022-08-09T20:10:52.201Z,2.40
2022-08-09T20:13:21.119Z,2.65
2022-08-09T20:16:33.755Z,2.33
2022-08-09T20:18:36.222Z,2.45
2022-08-09T20:21:02.576Z,2.20
2022-08-09T20:23:39.184Z,2.58
2022-08-09T20:26:07.133Z,2.40
2022-08-09T20:28:38.755Z,2.50
2022-08-09T20:31:16.412Z,2.40
2022-08-09T20:33:44.155Z,2.10
2022-08-09T20:36:11.459Z,2.40
2022-08-09T20:39:02.905Z,2.50
2022-08-09T20:41:35.589Z,2.50
2022-08-09T20:44:04.777Z,2.50
2022-08-09T20:46:42.896Z,2.58
2022-08-09T20:49:11.700Z,2.30
2022-08-09T20:51:41.066Z,2.47
2022-08-09T20:54:08.274Z,2.38
2022-08-09T20:56:39.204Z,2.40
2022-08-09T20:59:07.405Z,2.58
2022-08-09T21:01:50.425Z,2.42
2022-08-09T21:05:51.261Z,2.60
2022-08-09T21:07:12.450Z,2.13
2022-08-09T21:09:45.536Z,2.40
2022-08-09T21:14:46.189Z,2.47
2022-08-09T21:18:11.026Z,2.60
2022-08-09T21:20:17.019Z,2.50
2022-08-09T21:22:52.714Z,2.38
2022-08-09T21:25:39.820Z,2.50
2022-08-09T21:28:12.065Z,2.25
2022-08-09T21:30:42.132Z,2.40
2022-08-09T21:33:08.970Z,2.60
2022-08-09T21:35:40.541Z,2.47
2022-08-09T21:38:18.390Z,2.60
2022-08-09T21:40:50.746Z,2.60
2022-08-09T21:43:21.734Z,2.53
2022-08-09T21:46:03.714Z,2.17
2022-08-09T21:48:31.326Z,2.35
2022-08-09T21:50:58.618Z,2.50
2022-08-09T21:53:40.756Z,2.65
2022-08-09T21:56:07.451Z,2.58
2022-08-09T21:58:53.741Z,2.63
2022-08-09T22:01:26.207Z,2.30
2022-08-09T22:04:06.417Z,2.80
2022-08-09T22:06:32.765Z,2.40
2022-08-09T22:08:59.070Z,2.42
2022-08-09T22:12:05.999Z,2.53
2022-08-09T22:14:13.387Z,2.80
2022-08-09T22:16:41.317Z,2.45
2022-08-09T22:19:53.336Z,2.78
2022-08-09T22:21:54.180Z,2.40
2022-08-09T22:24:24.773Z,2.67
2022-08-09T22:26:52.164Z,2.80
2022-08-09T22:29:18.847Z,2.92
2022-08-09T22:31:56.432Z,2.55
2022-08-09T22:34:25.660Z,2.60
2022-08-09T22:36:52.777Z,2.90
2022-08-09T22:39:46.836Z,2.60
2022-08-09T22:42:16.053Z,2.90
2022-08-09T22:44:47.936Z,2.90
2022-08-09T22:48:16.013Z,2.75
2022-08-09T22:50:02.457Z,2.63
2022-08-09T22:52:28.908Z,2.30
2022-08-09T22:54:56.094Z,2.70
2022-08-09T22:57:22.470Z,2.60
2022-08-09T22:59:59.468Z,2.60
2022-08-09T23:02:27.463Z,3.17
2022-08-09T23:04:54.700Z,2.58
2022-08-09T23:08:22.162Z,2.30
2022-08-09T23:10:29.529Z,2.53
2022-08-09T23:12:56.139Z,2.50
2022-08-09T23:15:22.514Z,3.00
2022-08-09T23:17:48.845Z,2.67
2022-08-09T23:20:15.188Z,2.83
2022-08-09T23:22:41.557Z,2.30
2022-08-09T23:25:08.119Z,2.60
2022-08-09T23:27:34.663Z,2.60
2022-08-09T23:30:01.189Z,2.65
2022-08-09T23:32:27.591Z,2.80
2022-08-09T23:34:53.927Z,2.60
2022-08-09T23:37:21.505Z,2.80
2022-08-09T23:39:49.295Z,2.70
2022-08-09T23:42:15.726Z,2.70
2022-08-09T23:44:42.211Z,2.60
2022-08-09T23:47:08.547Z,2.92
2022-08-09T23:49:34.998Z,2.70
2022-08-09T23:52:01.386Z,2.58
2022-08-09T23:54:27.760Z,2.53
2022-08-09T23:56:58.085Z,2.50
2022-08-09T23:59:24.788Z,2.75
